Aérodrome :
LOGIN :

S'inscrire | Disclaimer

   EN    FR    IT 

 










Légende :    VFR   VFR Marginal   IFR   IFR Intensif   IFR Très Intensif
Visi : 
Plafond : 
>= 8 km
>= 3000ft
5 à 8 km
1000 à 3000 ft
1500m à 5 km
500 à 1000 ft
800 à 1500m
200 à 500 ft
< 800m
< 200 ft
Symboles :   Orages  Brouillard  Fortes neiges  Fortes précipitations  Vent > 20 kt
SIGMETs :   Divers  Orages  Givrage  Turbulence  Onde Orograph.  Cendres Volcan.







- Altitude de l'aérodrome : 274 ft
- Code IATA : PUY


LDPL - Pula

DERNIER METAR :
  • 290700Z 23015KT 200V250 CAVOK 24/18 Q1002 NOSIG

METARs EXPIRÉS :
  • 290630Z 22014KT CAVOK 23/18 Q1002 NOSIG
  • 290600Z 21009KT 170V230 9999 FEW027 SCT058 21/18 Q1001 NOSIG
  • 290530Z 21007KT 170V240 9999 -RA FEW025 BKN055 21/18 Q1001 NOSIG
  • 290500Z 21009KT 9999 FEW035 SCT050 20/17 Q1001 NOSIG
  • 290430Z 21005KT CAVOK 20/18 Q1001 NOSIG

TAF TAF LDPL
Valide du 29 à 06h jusqu'au 30 à 06h UTC


290525Z 2906/3006 24010KT CAVOK TX27/2913Z TN19/3003Z
BECMG 2918/2920 VRB02KT
Pas de NOTAMs connus pour ce terrain.



MET'MAP, la Météo Aéronautique d'un coup d'oeil ! - Copyright ORBIFLY Décembre 2007 - Disclaimer

ORBIFLY MET'MAP TEAM :

Programmation & Développement : Alexandra Zaïnal
Conception & Développement : Baudouin d'Aumeries
Co-Programmation & Développement : Marc-Olivier Méhu
Soutien technique & logistique : Manuel Goepfert

Contact : metmap@orbifly.com




SOURCES & CREDITS :

   NOAA